Mayport Ns (Adm David L. Mcdonald Field) Airport
KNRB : now visible

Airfield :











YOU CAN JOIN US ON...

 
LOGIN :

Register | Disclaimer

   EN    FR    IT 

 









Legend :    VFR   Marginal VFR   IFR   Intensive IFR   Very Intensive IFR
Visi :
Ceiling :
>= 8 km
>= 3000ft
5 to 8 km
1000 to 3000 ft
1500m to 5 km
500 to 1000 ft
800 to 1500m
200 to 500 ft
< 800m
< 200 ft
Symbols :   Thunderstorms  Fog  Heavy snow  Heavy precipitations  Wind > 20 kt







- Airport Elevation : 15 ft


KNRB - Mayport Ns (Adm David L. Mcdonald Field)

CURRENT METAR :
  • 220752Z AUTO 00000KT 10SM CLR 26/23 A3003 RMK AO2 SLP167 T02560233

EXPIRED METARs :
  • 220652Z AUTO 00000KT 10SM CLR 26/22 A3004 RMK AO2 SLP171 T02560222
  • 220552Z AUTO 00000KT 10SM CLR 26/22 A3005 RMK AO2 SLP174 T02560217 10283 20250 58007

TAF TAF KNRB
Valid from the 22 at 07:00 until the 23 at 07:00 UTC


2207/2307 12007KT 9999 FEW050 SCT200 QNH2999INS
BECMG 2212/2214 18006KT 9999 FEW030 SCT070 BKN250 QNH3000INS
BECMG 2220/2222 14010KT 9999 VCTS BKN050CB BKN150 QNH2995INS
TEMPO 2123/2301 VRB25G35KT 1600 TSRA BKN035CB BKN050
BECMG 2302/2304 16008KT 9999 NSW FEW040 SCT060 QNH2992INS AUTOMATED SENSOR METWATCH 2207 TIL 2209 T25/2210Z T31/2218Z FN00182
KZJX FIR / North America



MET'MAP, your aeronautical weather chart ! - Copyright ORBIFLY December 2007 - Disclaimer

ORBIFLY MET'MAP TEAM :

Programming & Development : Alexandra Zaïnal
Concept & Development : Baudouin d'Aumeries
Co-Development & Prog : Marc-Olivier Méhu
Technical & hardware support : Manuel Goepfert

Contact : metmap@orbifly.com




SOURCES & CREDITS :

   NOAA       Earth
Advisory